Flight Track Log - Related Links

Times and Time Zones

All times are in EST time to prevent confusion due to time zone crossing. See the SKW6345 flight status page for this flight to view local times or setup timezone preferences in your user account.

Time Position Orientation Groundspeed Altitude Reporting Facility
EST Latitude Longitude Course Direction KTS MPH feet Rate Location/Type
Tue 03:51:51 PM 37.6500 -122.3333 North 172 198 2,300  Level Northern Cal TRACON
Tue 03:53:51 PM 37.7714 -122.2931 15° North 269 310 6,400 2,209 Climbing Oakland Center
Tue 03:54:00 PM 38.0623 -122.3428 11° North  Level FlightAware Approximate
Tue 03:54:53 PM 37.8525 -122.2906 North 287 330 9,000  Level Oakland Center
Tue 03:55:00 PM 38.1859 -122.3333 North  Level FlightAware Approximate
Tue 03:55:54 PM 37.9561 -122.2878 North 309 356 11,200  Level Oakland Center
Tue 03:56:00 PM 38.3102 -122.3323 North  Level FlightAware Approximate
Tue 03:56:56 PM 38.0503 -122.2881 360° North 340 391 13,400  Level Oakland Center
Tue 03:57:00 PM 38.4341 -122.3199 North  Level FlightAware Approximate
Tue 03:57:57 PM 38.1453 -122.2881 360° North 345 397 15,500  Level Oakland Center
Tue 03:58:58 PM 38.2433 -122.2872 360° North 353 406 17,100 1,463 Climbing Oakland Center
Tue 04:00:00 PM 38.3450 -122.2878 360° North 365 420 18,500 1,463 Climbing Oakland Center
Tue 04:01:01 PM 38.4500 -122.2889 360° North 375 432 20,100 1,463 Climbing Oakland Center
Tue 04:02:03 PM 38.5572 -122.2867 North 384 442 21,500 1,415 Climbing Oakland Center
Tue 04:03:04 PM 38.6875 -122.2872 360° North 393 452 23,000 1,317 Climbing Oakland Center
Tue 04:04:06 PM 38.8008 -122.2867 360° North 402 463 24,200 1,073 Climbing Oakland Center
Tue 04:05:07 PM 38.9144 -122.2867 360° North 405 466 25,200 1,024 Climbing Oakland Center
Tue 04:06:09 PM 39.0306 -122.2878 360° North 412 474 26,300 976 Climbing Oakland Center
Tue 04:07:10 PM 39.1497 -122.2864 North 423 487 27,200 541 Climbing Oakland Center
Tue 04:08:11 PM 39.2719 -122.2881 359° North 437 503 27,400 488 Climbing Oakland Center
Tue 04:09:13 PM 39.3983 -122.2869 360° North 449 517 28,200 829 Climbing Oakland Center
Tue 04:10:14 PM 39.5428 -122.2867 360° North 449 517 29,100 732 Climbing Oakland Center
Tue 04:11:16 PM 39.6675 -122.2847 North 449 517 29,700 537 Climbing Oakland Center
Tue 04:12:17 PM 39.7953 -122.2861 360° North 456 525 30,200 537 Climbing Oakland Center
Tue 04:13:19 PM 39.9239 -122.2856 360° North 460 529 30,800 537 Climbing Oakland Center
Tue 04:14:20 PM 40.0506 -122.2861 360° North 458 527 31,300 537 Climbing Oakland Center
Tue 04:15:22 PM 40.1881 -122.2864 360° North 462 532 31,900 341 Climbing Oakland Center
Tue 04:16:23 PM 40.3264 -122.2858 360° North 473 544 32,000 49 Climbing Oakland Center
Tue 04:17:25 PM 40.4583 -122.2867 360° North 476 548 32,000  Level Oakland Center
Tue 04:18:26 PM 40.5917 -122.2842 North 480 552 32,000  Level Oakland Center
Tue 04:19:28 PM 40.7247 -122.2836 360° North 479 551 32,000  Level Oakland Center
Tue 04:20:29 PM 40.8544 -122.2833 360° North 469 540 32,000  Level Oakland Center
Tue 04:21:31 PM 40.9836 -122.2836 360° North 464 534 32,000  Level Oakland Center
Tue 04:22:32 PM 41.1386 -122.2872 359° North 465 535 32,000  Level Oakland Center
Tue 04:23:33 PM 41.2664 -122.2869 360° North 461 531 32,000  Level Oakland Center
Tue 04:24:35 PM 41.3775 -122.2825 North 456 525 32,000  Level Oakland Center
Tue 04:25:36 PM 41.5033 -122.2822 360° North 453 521 32,000  Level Oakland Center
Tue 04:26:38 PM 41.6308 -122.2828 360° North 456 525 32,000  Level Oakland Center
Tue 04:27:39 PM 41.7825 -122.2844 360° North 454 522 32,000  Level Oakland Center
Tue 04:28:41 PM 41.9089 -122.2842 360° North 452 520 32,000  Level Oakland Center
Tue 04:29:42 PM 42.0364 -122.2839 360° North 453 521 32,000  Level Oakland Center
Tue 04:30:43 PM 42.1633 -122.2822 North 451 519 32,000  Level Oakland Center
Tue 04:31:45 PM 42.2881 -122.2822 360° North 447 514 32,000  Level Oakland Center
Tue 04:33:11 PM 42.4589 -122.2822 360° North 439 505 32,000  Level Seattle Center
Tue 04:34:12 PM 42.5806 -122.2825 360° North 439 505 32,000  Level Seattle Center
Tue 04:35:13 PM 42.7000 -122.2822 360° North 432 497 32,000  Level Seattle Center
Tue 04:36:14 PM 42.8283 -122.2808 360° North 426 490 32,000  Level Seattle Center
Tue 04:37:15 PM 42.9469 -122.2808 360° North 425 489 32,000  Level Seattle Center
Tue 04:38:16 PM 43.0619 -122.2828 359° North 417 480 32,000  Level Seattle Center
Tue 04:39:17 PM 43.1806 -122.2828 360° North 425 489 32,000  Level Seattle Center
Tue 04:40:18 PM 43.2975 -122.2833 360° North 423 487 32,000  Level Seattle Center
Tue 04:41:19 PM 43.4164 -122.2814 North 426 490 32,000  Level Seattle Center
Tue 04:42:20 PM 43.5344 -122.2808 360° North 427 491 32,000  Level Seattle Center
Tue 04:43:20 PM 43.6522 -122.2803 360° North 427 491 32,000  Level Seattle Center
Tue 04:44:21 PM 43.7697 -122.2817 360° North 425 489 32,000  Level Seattle Center
Tue 04:45:22 PM 43.8886 -122.2806 360° North 428 493 32,000  Level Seattle Center
Tue 04:46:23 PM 44.0069 -122.2806 360° North 427 491 32,000  Level Seattle Center
Tue 04:47:24 PM 44.1478 -122.2797 360° North 424 488 32,000  Level Seattle Center
Tue 04:48:25 PM 44.2653 -122.2800 360° North 423 487 32,000  Level Seattle Center
Tue 04:49:26 PM 44.3825 -122.2817 359° North 422 486 32,000  Level Seattle Center
Tue 04:50:27 PM 44.4975 -122.2792 North 419 482 32,000  Level Seattle Center
Tue 04:51:28 PM 44.6142 -122.2794 360° North 419 482 32,000  Level Seattle Center
Tue 04:52:29 PM 44.7317 -122.2814 359° North 422 486 32,000  Level Seattle Center
Tue 04:53:30 PM 44.8472 -122.2803 360° North 419 482 32,000  Level Seattle Center
Tue 04:54:31 PM 44.9675 -122.2800 360° North 407 468 32,000  Level Seattle Center
Tue 04:55:32 PM 45.0814 -122.2797 360° North 411 473 32,000  Level Seattle Center
Tue 04:56:33 PM 45.1969 -122.2800 360° North 417 480 32,000  Level Seattle Center
Tue 04:57:34 PM 45.3100 -122.2797 360° North 412 474 32,000  Level Seattle Center
Tue 04:58:35 PM 45.4211 -122.2789 360° North 405 466 32,000  Level Seattle Center
Tue 04:59:37 PM 45.5333 -122.2781 360° North 404 465 32,000  Level Seattle Center
Tue 05:00:38 PM 45.6447 -122.2775 360° North 403 464 32,000  Level Seattle Center
Tue 05:01:39 PM 45.7786 -122.2781 360° North 402 463 32,000  Level Seattle Center
Tue 05:02:40 PM 45.8903 -122.2783 360° North 403 464 32,000  Level Seattle Center
Tue 05:03:41 PM 46.0033 -122.2789 360° North 407 468 32,000  Level Seattle Center
Tue 05:04:42 PM 46.1175 -122.2786 360° North 410 472 32,000  Level Seattle Center
Tue 05:05:43 PM 46.2306 -122.2789 360° North 410 472 32,000  Level Seattle Center
Tue 05:06:44 PM 46.3439 -122.2822 359° North 408 470 32,000  Level Seattle Center
Tue 05:07:45 PM 46.4589 -122.2797 North 412 474 32,000  Level Seattle Center
Tue 05:08:46 PM 46.5744 -122.2472 11° North 434 499 32,000  Level Seattle Center
Tue 05:09:47 PM 46.6878 -122.1833 21° North 438 504 32,000  Level Seattle Center
Tue 05:10:48 PM 46.8017 -122.1208 21° North 438 504 32,000  Level Seattle Center
Tue 05:11:48 PM 46.9156 -122.0606 20° North 438 504 32,000  Level Seattle Center
Tue 05:12:49 PM 47.0494 -122.0683 358° North 406 467 32,000  Level Seattle Center
Tue 05:13:50 PM 47.1572 -122.1014 348° North 396 456 32,000  Level Seattle Center
Tue 05:14:51 PM 47.2658 -122.1303 350° North 397 457 32,000  Level Seattle Center
Tue 05:15:52 PM 47.3744 -122.1600 350° North 398 458 32,000  Level Seattle Center
Tue 05:16:53 PM 47.4822 -122.1881 350° North 396 456 32,000  Level Seattle Center
Tue 05:17:54 PM 47.5886 -122.2150 350° North 393 452 32,000  Level Seattle Center
Tue 05:18:55 PM 47.6944 -122.2408 351° North 395 455 32,000 -397 Level Seattle Center
Tue 05:19:55 PM 47.8006 -122.2686 350° North 397 457 31,200 -1,785 Descending Seattle Center
Tue 05:20:56 PM 47.9264 -122.3019 350° North 388 447 28,400 -2,508 Descending Seattle Center
Tue 05:21:57 PM 48.0325 -122.3308 350° North 391 450 26,100 -2,213 Descending Seattle Center
Tue 05:22:58 PM 48.1069 -122.4158 323° Northwest 344 396 23,900 -2,016 Descending Seattle Center
Tue 05:23:59 PM 48.1678 -122.5092 314° West 319 367 22,000 -1,918 Descending Seattle Center
Tue 05:25:00 PM 48.2619 -122.5339 350° North 361 415 20,000 -1,967 Descending Seattle Center
Tue 05:26:01 PM 48.3619 -122.5250 North 363 418 18,000 -1,623 Descending Seattle Center
Tue 05:27:02 PM 48.4481 -122.4767 20° North 344 396 16,700 -1,636 Descending Seattle Center
Tue 05:28:02 PM 48.5094 -122.3611 51° Northeast 352 405 14,700 -1,884 Descending Seattle Center
Tue 05:29:03 PM 48.5786 -122.2758 39° Northeast 330 380 12,900 -1,328 Descending Seattle Center
Tue 05:30:04 PM 48.6400 -122.3267 331° Northwest 275 316 12,000 -443 Descending Seattle Center
Tue 05:31:05 PM 48.6731 -122.4164 299° West 251 289 12,000  Level Seattle Center
Tue 05:32:06 PM 48.7103 -122.5058 302° West 250 288 12,000  Level Seattle Center
Tue 05:33:15 PM 48.7500 -122.6167 299° West 260 299 12,000  Level Vancouver Center
Tue 05:34:15 PM 48.8000 -122.6833 319° Northwest 250 288 12,000  Level Vancouver Center
Tue 05:35:15 PM 48.8500 -122.7667 312° West 250 288 12,000 -100 Level Vancouver Center
Tue 05:36:15 PM 48.9000 -122.8667 307° West 250 288 11,800 -350 Descending Vancouver Center
Tue 05:37:15 PM 48.9333 -122.9333 307° West 250 288 11,300 -500 Descending Vancouver Center
Tue 05:38:15 PM 48.9833 -123.0167 312° West 250 288 10,800 -500 Descending Vancouver Center
Tue 05:39:15 PM 49.0333 -123.0833 319° Northwest 260 299 10,300 -1,150 Descending Vancouver Center
Tue 05:40:15 PM 49.0667 -123.1833 297° West 250 288 8,500 -1,750 Descending Vancouver Center
Tue 05:41:15 PM 49.0833 -123.2833 284° West 240 276 6,800 -1,350 Descending Vancouver Center
Tue 05:42:15 PM 49.1000 -123.3833 284° West 240 276 5,800 -1,000 Descending Vancouver Center
Tue 05:43:15 PM 49.1167 -123.4667 287° West 240 276 4,800 -1,100 Descending Vancouver Center
Tue 05:44:15 PM 49.1333 -123.5667 284° West 210 242 3,600 -800 Descending Vancouver Center
Tue 05:45:15 PM 49.1833 -123.5167 33° Northeast 210 242 3,200 -550 Descending Vancouver Center
Tue 05:46:15 PM 49.2167 -123.4333 58° Northeast 220 253 2,500 -600 Descending Vancouver Center
Tue 05:47:15 PM 49.2000 -123.3667 111° Southeast 190 219 2,000 -500 Descending Vancouver Center
Tue 05:48:15 PM 49.2000 -123.2833 90° East 140 161 1,500 -650 Descending Vancouver Center
Tue 05:49:15 PM 49.1833 -123.2333 117° Southeast 120 138 700 -700 Descending Vancouver Center
Tue 05:50:15 PM 49.1833 -123.1833 90° East 120 138 100 -600 Descending Vancouver Center

Login

Don't have an account? Register now (free) for customized features, flight alerts, and more!